Time;durP1;ratioP1;P1;durP2;ratioP2;P2;SDS_P1;SDS_P2;PMS_P1;PMS_P2;Temp;Humidity;BMP_temperature;BMP_pressure;BME280_temperature;BME280_humidity;BME280_pressure;Samples;Min_cycle;Max_cycle;Signal;HPM_P1;HPM_P2
2023/09/19 00:00:43;;;;;;;6.60;1.77;;;;;;;23.32;52.88;100722.69;4997075;28;20104;-64
2023/09/19 00:03:09;;;;;;;7.88;1.90;;;;;;;23.32;52.73;100725.34;4997541;28;20029;-65
2023/09/19 00:05:38;;;;;;;5.28;1.73;;;;;;;23.30;52.88;100729.97;4997821;28;20089;-65
2023/09/19 00:08:04;;;;;;;6.03;1.85;;;;;;;23.30;52.99;100726.47;4997036;28;20117;-64
2023/09/19 00:10:30;;;;;;;7.47;1.88;;;;;;;23.30;52.55;100734.47;4997283;28;20121;-64
2023/09/19 00:13:00;;;;;;;4.82;1.50;;;;;;;23.30;53.19;100734.47;4997292;28;20114;-65
2023/09/19 00:15:28;;;;;;;7.22;1.60;;;;;;;23.28;52.64;100734.63;4997383;28;20080;-65
2023/09/19 00:17:55;;;;;;;5.00;1.60;;;;;;;23.29;52.81;100736.28;4997139;28;20034;-66
2023/09/19 00:20:22;;;;;;;7.32;1.70;;;;;;;23.29;52.73;100740.75;4997046;28;20060;-65
2023/09/19 00:22:50;;;;;;;4.55;1.50;;;;;;;23.28;52.44;100745.25;4997411;28;20038;-64
2023/09/19 00:25:15;;;;;;;6.07;1.75;;;;;;;23.27;52.58;100746.25;4997421;28;20487;-64
2023/09/19 00:27:42;;;;;;;5.18;1.80;;;;;;;23.26;52.57;100741.94;4996914;28;20046;-64
2023/09/19 00:30:20;;;;;;;5.53;1.58;;;;;;;23.26;52.81;100751.75;4996563;28;20042;-64
2023/09/19 00:32:51;;;;;;;7.75;1.90;;;;;;;23.27;52.84;100756.06;4996668;28;20045;-66
2023/09/19 00:35:17;;;;;;;7.25;2.20;;;;;;;23.26;52.68;100759.72;4996699;28;20044;-65
2023/09/19 00:37:43;;;;;;;6.32;1.77;;;;;;;23.26;52.57;100760.53;4997264;28;20030;-64
2023/09/19 00:40:12;;;;;;;6.45;2.00;;;;;;;23.25;52.30;100760.69;4997288;28;20042;-65
2023/09/19 00:42:39;;;;;;;6.65;2.22;;;;;;;23.26;52.68;100763.19;4996721;28;20037;-64
2023/09/19 00:45:06;;;;;;;5.65;1.65;;;;;;;23.25;52.46;100769.50;4978922;28;20477;-64
2023/09/19 00:47:31;;;;;;;6.55;1.88;;;;;;;23.25;52.58;100772.16;4997142;28;20034;-65
2023/09/19 00:49:57;;;;;;;6.32;1.60;;;;;;;23.24;52.44;100767.84;4996878;28;20117;-64
2023/09/19 00:52:23;;;;;;;5.95;1.77;;;;;;;23.24;52.52;100781.16;4997059;28;20053;-63
2023/09/19 00:54:48;;;;;;;5.95;1.63;;;;;;;23.23;52.30;100781.31;4996405;28;20129;-64
2023/09/19 00:57:19;;;;;;;5.57;1.80;;;;;;;23.24;52.27;100780.28;4996903;28;20134;-64
2023/09/19 00:59:46;;;;;;;6.85;1.88;;;;;;;23.23;52.24;100791.94;4997144;28;20555;-65
2023/09/19 01:02:14;;;;;;;6.25;1.90;;;;;;;23.24;52.16;100802.41;4996003;28;20061;-63
2023/09/19 01:04:40;;;;;;;6.78;1.88;;;;;;;23.22;52.29;100798.25;4995645;28;20046;-64
2023/09/19 01:07:06;;;;;;;7.90;2.00;;;;;;;23.21;51.81;100792.09;4996603;28;20446;-66
2023/09/19 01:09:31;;;;;;;5.40;1.67;;;;;;;23.20;51.85;100801.06;4997043;28;20030;-65
2023/09/19 01:12:02;;;;;;;7.18;1.80;;;;;;;23.20;52.25;100794.91;4996700;28;20474;-63
2023/09/19 01:14:57;;;;;;;5.32;1.50;;;;;;;23.21;51.81;100799.22;4996467;28;20037;-66
2023/09/19 01:17:35;;;;;;;6.80;1.80;;;;;;;23.22;52.01;100803.56;4996264;28;20037;-63
2023/09/19 01:20:16;;;;;;;6.28;1.50;;;;;;;23.20;51.76;100805.56;4996526;28;20061;-64
2023/09/19 01:23:01;;;;;;;5.80;1.77;;;;;;;23.16;51.92;100803.22;4996547;28;20026;-64
2023/09/19 01:26:08;;;;;;;5.47;1.45;;;;;;;23.20;51.53;100813.53;4996370;28;20026;-67
2023/09/19 01:28:57;;;;;;;4.47;1.38;;;;;;;23.19;51.53;100815.34;4996681;28;20030;-64
2023/09/19 01:31:24;;;;;;;5.25;1.50;;;;;;;23.21;51.70;100823.16;4996563;28;20106;-63
2023/09/19 01:33:59;;;;;;;6.72;1.85;;;;;;;23.18;51.72;100819.00;4996224;28;20048;-64
2023/09/19 01:36:24;;;;;;;6.00;1.60;;;;;;;23.17;51.64;100820.81;4996497;28;20037;-66
2023/09/19 01:38:51;;;;;;;7.50;2.10;;;;;;;23.17;51.90;100822.63;5011452;28;20026;-66
2023/09/19 01:41:25;;;;;;;5.47;1.88;;;;;;;23.15;51.86;100828.13;4995973;28;20391;-64
2023/09/19 01:43:51;;;;;;;6.82;1.95;;;;;;;23.18;51.49;100826.97;4996740;28;20118;-64
2023/09/19 01:46:24;;;;;;;7.15;1.67;;;;;;;23.17;51.16;100833.28;4995951;28;20117;-64
2023/09/19 01:48:56;;;;;;;6.93;1.77;;;;;;;23.16;51.50;100832.44;4996686;28;20038;-66
2023/09/19 01:51:46;;;;;;;5.53;1.55;;;;;;;23.14;51.72;100825.63;4996163;28;20128;-63
2023/09/19 01:54:16;;;;;;;7.95;1.75;;;;;;;23.15;51.00;100833.44;4995918;28;20030;-66
2023/09/19 01:57:04;;;;;;;8.82;1.73;;;;;;;23.14;50.98;100831.75;4996192;28;20435;-65
2023/09/19 01:59:37;;;;;;;5.70;1.50;;;;;;;23.15;51.43;100827.28;4996279;28;20141;-63
2023/09/19 02:02:05;;;;;;;6.95;1.73;;;;;;;23.14;50.86;100821.13;4996450;28;20026;-65
2023/09/19 02:04:33;;;;;;;6.65;1.83;;;;;;;23.13;50.95;100823.94;4996331;28;20116;-64
2023/09/19 02:07:00;;;;;;;3.97;1.40;;;;;;;23.15;51.26;100821.97;4995072;28;20026;-64
2023/09/19 02:09:26;;;;;;;4.72;1.50;;;;;;;23.13;50.91;100819.47;4995874;28;20041;-64
2023/09/19 02:11:51;;;;;;;5.77;1.77;;;;;;;23.14;51.19;100817.63;4996793;28;20034;-64
2023/09/19 02:14:17;;;;;;;6.60;1.80;;;;;;;23.13;50.99;100824.78;4995756;28;20725;-65
2023/09/19 02:16:42;;;;;;;6.20;1.88;;;;;;;23.12;50.45;100820.44;4998538;28;20280;-64
2023/09/19 02:19:07;;;;;;;7.35;2.10;;;;;;;23.11;50.73;100823.28;4999485;28;20034;-65
2023/09/19 02:21:33;;;;;;;4.50;1.47;;;;;;;23.12;50.36;100828.44;4999677;28;20026;-63
2023/09/19 02:23:59;;;;;;;6.00;1.58;;;;;;;23.11;50.77;100820.63;4999805;28;20735;-65
2023/09/19 02:26:24;;;;;;;5.60;1.48;;;;;;;23.09;50.71;100826.09;4999685;28;20034;-64
2023/09/19 02:28:50;;;;;;;4.47;1.40;;;;;;;23.11;50.66;100833.91;4999659;28;20093;-63
2023/09/19 02:31:16;;;;;;;7.82;1.63;;;;;;;23.10;50.55;100834.91;4999324;28;20061;-63
2023/09/19 02:33:42;;;;;;;4.45;1.58;;;;;;;23.09;50.28;100831.41;4999387;28;20117;-63
2023/09/19 02:36:08;;;;;;;4.30;1.40;;;;;;;23.09;50.48;100834.06;4999396;28;20538;-64
2023/09/19 02:38:34;;;;;;;6.03;1.63;;;;;;;23.08;50.37;100829.75;4999395;28;20030;-65
2023/09/19 02:40:59;;;;;;;4.80;1.30;;;;;;;23.09;50.30;100836.72;4999203;28;20399;-63
2023/09/19 02:43:24;;;;;;;5.68;1.60;;;;;;;23.08;50.20;100837.72;4999303;28;20072;-64
2023/09/19 02:45:50;;;;;;;5.97;1.52;;;;;;;23.09;50.09;100835.91;4998966;28;20034;-66
2023/09/19 02:48:16;;;;;;;5.20;1.50;;;;;;;23.06;50.31;100836.19;4999443;28;20031;-65
2023/09/19 02:50:42;;;;;;;5.60;1.73;;;;;;;23.08;49.86;100839.53;4999490;28;20185;-64
2023/09/19 02:53:07;;;;;;;4.57;1.40;;;;;;;23.05;49.83;100835.34;4999365;28;20025;-64
2023/09/19 02:55:33;;;;;;;4.97;1.30;;;;;;;23.05;49.79;100840.66;5013972;28;20037;-64
2023/09/19 02:58:00;;;;;;;4.18;1.40;;;;;;;23.05;50.13;100831.84;4998722;28;20034;-64
2023/09/19 03:00:26;;;;;;;6.82;1.70;;;;;;;23.06;50.01;100837.00;4999068;28;20811;-65
2023/09/19 03:02:54;;;;;;;5.63;1.40;;;;;;;23.05;49.99;100840.66;4997654;28;20027;-65
2023/09/19 03:05:20;;;;;;;5.22;1.48;;;;;;;23.05;49.96;100840.66;4998733;28;20037;-64
2023/09/19 03:07:50;;;;;;;5.93;1.40;;;;;;;23.04;49.92;100844.31;4999063;28;20085;-64
2023/09/19 03:10:16;;;;;;;4.65;1.60;;;;;;;23.04;49.62;100854.13;4998770;28;20026;-65
2023/09/19 03:12:42;;;;;;;5.78;1.50;;;;;;;23.03;49.46;100842.63;4998290;28;20038;-64
2023/09/19 03:15:08;;;;;;;6.13;1.60;;;;;;;23.02;49.64;100838.31;4998810;28;20446;-64
2023/09/19 03:17:34;;;;;;;5.68;1.80;;;;;;;23.01;49.86;100837.47;4998563;28;20034;-64
2023/09/19 03:19:59;;;;;;;5.35;1.40;;;;;;;23.02;49.33;100854.28;4998273;28;20036;-64
2023/09/19 03:22:26;;;;;;;6.25;1.23;;;;;;;23.01;49.38;100847.28;4998385;28;20033;-63
2023/09/19 03:24:52;;;;;;;6.43;1.63;;;;;;;23.01;49.55;100840.13;4998340;28;20033;-64
2023/09/19 03:27:18;;;;;;;7.18;1.67;;;;;;;23.01;49.37;100849.94;4997258;28;20521;-64
2023/09/19 03:29:43;;;;;;;4.10;1.50;;;;;;;23.00;49.29;100850.91;4997902;28;21338;-63
2023/09/19 03:32:12;;;;;;;4.53;1.48;;;;;;;23.01;49.30;100847.28;4998244;28;20467;-64
2023/09/19 03:34:43;;;;;;;5.50;1.55;;;;;;;23.01;49.57;100840.13;4997996;28;20030;-65
2023/09/19 03:37:09;;;;;;;4.07;1.40;;;;;;;22.99;49.64;100846.59;4998519;28;20065;-64
2023/09/19 03:39:34;;;;;;;4.93;1.38;;;;;;;22.98;49.61;100834.28;4998179;28;20069;-63
2023/09/19 03:41:59;;;;;;;3.97;1.40;;;;;;;22.98;49.17;100842.28;4997024;28;20057;-64
2023/09/19 03:44:24;;;;;;;4.85;1.58;;;;;;;22.99;49.38;100833.31;4997852;28;20100;-64
2023/09/19 03:46:50;;;;;;;5.93;1.52;;;;;;;22.98;49.06;100843.09;4997937;28;20534;-63
2023/09/19 03:49:15;;;;;;;5.68;1.42;;;;;;;22.99;49.25;100838.63;4998074;28;20034;-65
2023/09/19 03:51:41;;;;;;;5.85;1.75;;;;;;;22.97;49.56;100833.47;4998199;28;20037;-64
2023/09/19 03:54:07;;;;;;;4.25;1.40;;;;;;;22.99;49.09;100833.31;4997523;28;20036;-64
2023/09/19 03:56:32;;;;;;;5.70;1.70;;;;;;;22.98;49.17;100828.97;4997684;28;20077;-65
2023/09/19 03:58:58;;;;;;;4.40;1.30;;;;;;;22.98;49.30;100835.13;4998102;28;20034;-64
2023/09/19 04:01:23;;;;;;;4.80;1.35;;;;;;;22.96;49.59;100825.66;4997566;28;20120;-65
2023/09/19 04:03:50;;;;;;;4.88;1.45;;;;;;;22.96;49.64;100829.13;4997326;28;20399;-63
2023/09/19 04:06:16;;;;;;;4.80;1.55;;;;;;;22.97;49.30;100837.94;4996483;28;20479;-63
2023/09/19 04:08:43;;;;;;;5.07;1.70;;;;;;;22.96;49.59;100830.97;4997959;28;20579;-63
2023/09/19 04:11:08;;;;;;;4.47;1.25;;;;;;;22.95;48.93;100826.63;4997382;28;20036;-64
2023/09/19 04:13:34;;;;;;;6.50;1.50;;;;;;;22.95;49.46;100822.16;4996553;28;20472;-64
2023/09/19 04:15:59;;;;;;;5.25;1.40;;;;;;;22.95;49.29;100837.25;4997120;28;20041;-64
2023/09/19 04:18:25;;;;;;;5.10;1.75;;;;;;;22.94;49.28;100825.81;4997245;28;20090;-65
2023/09/19 04:20:50;;;;;;;4.97;1.58;;;;;;;22.93;49.59;100837.41;4997605;28;20033;-67
2023/09/19 04:23:16;;;;;;;4.22;1.38;;;;;;;22.95;49.36;100853.22;4996828;28;20541;-64
2023/09/19 04:25:42;;;;;;;6.03;1.60;;;;;;;22.95;49.03;100858.53;4997234;28;20044;-63
2023/09/19 04:28:07;;;;;;;5.32;1.58;;;;;;;22.95;49.53;100866.50;4997522;28;20429;-65
2023/09/19 04:30:33;;;;;;;5.78;1.33;;;;;;;22.94;49.38;100864.81;4996255;28;20050;-64
2023/09/19 04:32:59;;;;;;;5.40;1.40;;;;;;;22.94;49.23;100863.03;4996670;28;20475;-66
2023/09/19 04:35:25;;;;;;;7.05;1.42;;;;;;;22.93;49.22;100873.81;4997250;28;20034;-64
2023/09/19 04:37:50;;;;;;;3.80;1.35;;;;;;;22.92;49.41;100886.25;4996713;28;20059;-63
2023/09/19 04:40:17;;;;;;;5.13;1.35;;;;;;;22.92;49.11;100882.75;4995939;28;20431;-63
2023/09/19 04:42:43;;;;;;;3.97;1.42;;;;;;;22.93;49.43;100887.91;4996547;28;20538;-64
2023/09/19 04:45:10;;;;;;;5.05;1.63;;;;;;;22.92;49.25;100898.69;4997365;28;20041;-64
2023/09/19 04:47:38;;;;;;;4.75;1.35;;;;;;;22.92;49.16;100890.72;4996743;28;20045;-64
2023/09/19 04:50:05;;;;;;;5.75;1.52;;;;;;;22.92;48.96;100904.88;4997297;28;20097;-64
2023/09/19 04:52:31;;;;;;;4.35;1.45;;;;;;;22.90;48.99;100901.50;4996534;28;20537;-65
2023/09/19 04:54:57;;;;;;;4.28;1.35;;;;;;;22.90;49.51;100906.81;4996925;28;20026;-63
2023/09/19 04:57:23;;;;;;;5.97;1.60;;;;;;;22.91;49.16;100913.00;4996439;28;20057;-64
2023/09/19 04:59:48;;;;;;;4.65;1.50;;;;;;;22.89;49.10;100909.63;4996470;28;20049;-64
2023/09/19 05:02:13;;;;;;;7.05;1.70;;;;;;;22.90;49.48;100911.31;4996759;28;20026;-63
2023/09/19 05:04:38;;;;;;;5.05;1.40;;;;;;;22.90;49.22;100906.81;4996992;28;20030;-64
2023/09/19 05:07:04;;;;;;;5.53;1.52;;;;;;;22.91;49.23;100915.66;4996736;28;20025;-63
2023/09/19 05:09:29;;;;;;;4.72;1.40;;;;;;;22.90;49.37;100911.31;4997267;28;20585;-65
2023/09/19 05:11:56;;;;;;;5.72;1.40;;;;;;;22.90;49.09;100914.78;4996818;28;20435;-63
2023/09/19 05:14:22;;;;;;;6.05;1.63;;;;;;;22.88;49.39;100910.66;4996115;28;20057;-64
2023/09/19 05:16:47;;;;;;;4.72;1.42;;;;;;;22.89;49.20;100913.16;4996924;28;20036;-63
2023/09/19 05:19:13;;;;;;;6.38;1.38;;;;;;;22.88;49.25;100911.47;5011198;28;20398;-64
2023/09/19 05:21:38;;;;;;;5.93;1.77;;;;;;;22.89;49.39;100915.81;4995583;28;20041;-64
2023/09/19 05:24:06;;;;;;;4.47;1.50;;;;;;;22.90;48.80;100927.25;4996852;28;20046;-63
2023/09/19 05:26:32;;;;;;;6.65;1.33;;;;;;;22.88;49.13;100922.09;4995962;28;20538;-64
2023/09/19 05:28:57;;;;;;;4.93;1.33;;;;;;;22.88;49.38;100931.91;5011182;28;20984;-66
2023/09/19 05:31:24;;;;;;;5.05;1.40;;;;;;;22.88;49.05;100922.09;4996217;28;20050;-67
2023/09/19 05:33:49;;;;;;;3.72;1.30;;;;;;;22.88;49.07;100927.41;4996438;28;20134;-63
2023/09/19 05:36:16;;;;;;;4.88;1.30;;;;;;;22.87;49.07;100927.56;4996584;28;20113;-64
2023/09/19 05:38:42;;;;;;;3.30;1.20;;;;;;;22.87;49.17;100928.38;4995845;28;20554;-65
2023/09/19 05:41:09;;;;;;;4.45;1.38;;;;;;;22.88;49.37;100923.94;4996208;28;20101;-65
2023/09/19 05:43:37;;;;;;;6.38;1.60;;;;;;;22.88;49.40;100939.88;4996171;28;20589;-64
2023/09/19 05:46:03;;;;;;;4.68;1.30;;;;;;;22.84;49.08;100928.69;4996168;28;20031;-64
2023/09/19 05:48:28;;;;;;;5.93;1.45;;;;;;;22.87;49.33;100930.22;4995769;28;20117;-64
2023/09/19 05:50:53;;;;;;;4.47;1.30;;;;;;;22.85;49.25;100927.72;4997910;28;20105;-65
2023/09/19 05:53:19;;;;;;;5.55;1.48;;;;;;;22.85;49.26;100927.72;4999993;28;20042;-65
2023/09/19 05:55:45;;;;;;;4.50;1.33;;;;;;;22.85;49.46;100908.28;5000101;28;20472;-65
2023/09/19 05:58:13;;;;;;;5.43;1.63;;;;;;;22.83;49.05;100914.59;4999698;28;20030;-65
2023/09/19 06:00:41;;;;;;;3.90;1.35;;;;;;;22.85;49.47;100910.94;5000581;28;20030;-65
2023/09/19 06:03:06;;;;;;;5.78;2.30;;;;;;;22.84;49.55;100912.75;5000181;28;20105;-64
2023/09/19 06:05:32;;;;;;;4.57;1.70;;;;;;;22.85;49.54;100924.22;5000058;28;20493;-64
2023/09/19 06:08:00;;;;;;;6.75;1.50;;;;;;;22.85;49.21;100914.44;4999569;28;20057;-64
2023/09/19 06:10:27;;;;;;;5.18;1.55;;;;;;;22.83;49.07;100925.22;4999691;28;20089;-64
2023/09/19 06:12:54;;;;;;;4.55;1.55;;;;;;;22.82;49.47;100912.06;4999230;28;20143;-64
2023/09/19 06:15:23;;;;;;;6.53;1.42;;;;;;;22.83;49.55;100922.56;4998728;28;20041;-63
2023/09/19 06:17:59;;;;;;;6.43;1.73;;;;;;;22.82;49.22;100923.53;4999838;28;20045;-64
2023/09/19 06:20:25;;;;;;;5.97;1.75;;;;;;;22.83;49.32;100927.88;4999709;28;20026;-64
2023/09/19 06:22:51;;;;;;;6.03;1.75;;;;;;;22.81;49.40;100935.16;4999814;28;20479;-66
2023/09/19 06:25:20;;;;;;;4.78;1.35;;;;;;;22.83;49.26;100938.50;4999617;28;20073;-64
2023/09/19 06:27:52;;;;;;;5.20;1.52;;;;;;;22.83;49.50;100937.66;4999321;28;20030;-65
2023/09/19 06:30:18;;;;;;;5.40;1.50;;;;;;;22.83;49.33;100945.63;4999266;28;20125;-64
2023/09/19 06:32:44;;;;;;;6.80;1.48;;;;;;;22.81;49.53;100947.59;4998541;28;20120;-64
2023/09/19 06:35:11;;;;;;;4.80;1.40;;;;;;;22.80;49.16;100951.25;4999618;28;20034;-64
2023/09/19 06:37:40;;;;;;;6.90;1.60;;;;;;;22.85;49.69;100956.13;4999504;28;20026;-66
2023/09/19 06:40:13;;;;;;;6.15;1.60;;;;;;;22.85;49.52;100956.13;4998485;28;20037;-65
2023/09/19 06:42:45;;;;;;;5.60;1.70;;;;;;;22.86;49.79;100955.97;4999281;28;20084;-63
2023/09/19 06:45:17;;;;;;;5.70;1.45;;;;;;;22.86;50.38;100958.63;4999500;28;20026;-65
2023/09/19 06:47:45;;;;;;;5.35;1.50;;;;;;;22.82;49.90;100952.75;4999208;28;20022;-65
2023/09/19 06:50:13;;;;;;;6.45;1.60;;;;;;;22.83;50.40;100954.44;4999404;28;20526;-65
2023/09/19 06:52:40;;;;;;;4.60;1.45;;;;;;;22.85;50.24;100961.44;4998930;28;20030;-64
2023/09/19 06:55:06;;;;;;;6.82;1.65;;;;;;;22.83;50.59;100961.59;4999053;28;20072;-64
2023/09/19 06:57:32;;;;;;;4.22;1.60;;;;;;;22.83;50.48;100961.59;4999041;28;20029;-65
2023/09/19 06:59:57;;;;;;;6.90;1.60;;;;;;;22.83;51.04;100953.63;4998772;28;20030;-63
2023/09/19 07:02:22;;;;;;;6.53;1.83;;;;;;;22.81;51.01;100959.06;4998914;28;20601;-63
2023/09/19 07:04:49;;;;;;;6.22;1.38;;;;;;;22.85;51.19;100961.44;4998703;28;20041;-65
2023/09/19 07:07:14;;;;;;;5.82;1.70;;;;;;;22.81;51.14;100964.41;4998610;28;20042;-67
2023/09/19 07:09:40;;;;;;;4.18;1.35;;;;;;;22.83;50.67;100956.28;4998665;28;20038;-64
2023/09/19 07:12:05;;;;;;;7.47;1.83;;;;;;;22.83;50.83;100959.75;4998571;28;20030;-66
2023/09/19 07:14:31;;;;;;;9.82;1.95;;;;;;;22.80;51.08;100965.38;4998941;28;20298;-64
2023/09/19 07:16:56;;;;;;;6.40;1.73;;;;;;;22.80;50.76;100969.84;4998342;28;20450;-64
2023/09/19 07:19:21;;;;;;;7.13;1.75;;;;;;;22.81;50.86;100971.50;4998938;28;20022;-66
2023/09/19 07:21:47;;;;;;;7.47;1.88;;;;;;;22.81;50.66;100966.19;4997307;28;20047;-63
2023/09/19 07:24:13;;;;;;;5.55;1.63;;;;;;;22.80;50.88;100970.69;4998692;28;20033;-64
2023/09/19 07:26:39;;;;;;;9.88;2.08;;;;;;;22.78;51.24;100970.00;4998424;28;20129;-63
2023/09/19 07:29:08;;;;;;;6.30;1.30;;;;;;;22.76;51.81;100966.66;4998240;28;20042;-62
2023/09/19 07:31:34;;;;;;;6.38;2.03;;;;;;;22.77;51.74;100964.84;4997632;28;20510;-62
2023/09/19 07:33:59;;;;;;;6.80;1.35;;;;;;;22.78;51.60;100962.03;4998031;28;20041;-64
2023/09/19 07:36:24;;;;;;;6.20;1.90;;;;;;;22.78;51.77;100959.38;4998394;28;20475;-63
2023/09/19 07:38:50;;;;;;;6.05;1.45;;;;;;;22.83;51.70;100959.75;4998115;28;20342;-62
2023/09/19 07:41:15;;;;;;;6.28;1.40;;;;;;;22.85;51.40;100962.25;4998180;28;20875;-62
2023/09/19 07:43:40;;;;;;;7.28;1.42;;;;;;;22.87;51.38;100959.44;4998127;28;20027;-62
2023/09/19 07:46:07;;;;;;;5.37;1.40;;;;;;;22.91;51.35;100964.31;4998360;28;20125;-62
2023/09/19 07:48:34;;;;;;;5.07;1.33;;;;;;;22.93;51.38;100966.81;4649115;28;10001007;-61
2023/09/19 07:51:03;;;;;;;5.18;1.35;;;;;;;22.97;51.31;100965.50;4986786;28;20498;-65
2023/09/19 07:53:29;;;;;;;6.70;1.45;;;;;;;22.95;51.42;100963.00;4998385;28;20121;-62
2023/09/19 07:56:05;;;;;;;6.95;1.70;;;;;;;22.94;51.33;100971.97;4997819;28;20474;-64
2023/09/19 07:58:31;;;;;;;5.38;1.50;;;;;;;22.97;51.34;100968.16;4997979;28;20030;-62
2023/09/19 08:01:01;;;;;;;10.20;1.58;;;;;;;23.00;51.19;100971.38;4995983;28;20491;-62
2023/09/19 08:03:27;;;;;;;7.25;1.40;;;;;;;22.99;50.93;100969.69;4986707;28;20050;-64
2023/09/19 08:05:53;;;;;;;7.28;1.33;;;;;;;22.97;51.10;100976.97;4982677;28;20034;-64
2023/09/19 08:08:18;;;;;;;6.65;1.70;;;;;;;22.94;51.38;100977.28;4981724;28;20040;-64
2023/09/19 08:10:45;;;;;;;6.38;2.00;;;;;;;22.93;51.38;100985.41;4981977;28;20030;-63
2023/09/19 08:13:13;;;;;;;6.65;1.25;;;;;;;22.94;51.01;100976.44;4980844;28;20479;-64
2023/09/19 08:15:46;;;;;;;4.88;1.15;;;;;;;22.93;51.37;100980.09;4982061;28;20562;-63
2023/09/19 08:18:12;;;;;;;7.50;1.40;;;;;;;22.94;51.13;100973.78;4996895;28;20034;-65
2023/09/19 08:20:37;;;;;;;8.05;1.70;;;;;;;22.95;51.14;100978.13;4989779;28;20030;-64
2023/09/19 08:23:08;;;;;;;7.03;1.60;;;;;;;22.96;51.12;100974.47;4987299;28;20041;-63
2023/09/19 08:25:34;;;;;;;4.93;1.35;;;;;;;22.97;51.05;100978.78;5003294;28;20084;-63
2023/09/19 08:28:03;;;;;;;6.93;1.60;;;;;;;22.96;51.63;100974.47;4987717;28;20120;-64
2023/09/19 08:30:29;;;;;;;7.55;1.90;;;;;;;22.97;51.69;100982.31;4986928;28;20136;-63
2023/09/19 08:32:58;;;;;;;7.68;1.60;;;;;;;22.96;51.24;100975.31;4987456;28;20037;-62
2023/09/19 08:35:23;;;;;;;6.20;1.92;;;;;;;22.99;51.68;100972.34;4989900;28;20133;-62
2023/09/19 08:37:49;;;;;;;5.53;1.73;;;;;;;23.00;51.16;100979.34;4996677;28;20124;-63
2023/09/19 08:40:14;;;;;;;6.55;1.70;;;;;;;23.03;50.80;100969.38;4996577;28;20057;-62
2023/09/19 08:42:54;;;;;;;7.55;1.65;;;;;;;23.10;51.15;100981.94;4994339;28;20064;-62
2023/09/19 08:45:23;;;;;;;6.95;1.65;;;;;;;23.18;50.96;100976.66;4996617;28;20117;-63
2023/09/19 08:48:13;;;;;;;7.75;1.40;;;;;;;23.23;50.84;100970.06;4986673;28;20034;-61
2023/09/19 08:50:58;;;;;;;4.65;1.25;;;;;;;23.24;50.94;100974.38;4996164;28;20026;-61
2023/09/19 08:53:31;;;;;;;6.25;1.60;;;;;;;23.23;50.96;100967.41;4995537;28;20467;-62
2023/09/19 08:56:01;;;;;;;7.63;1.77;;;;;;;23.23;50.75;100968.22;4996833;28;20042;-63
2023/09/19 08:58:35;;;;;;;6.28;1.50;;;;;;;23.20;50.88;100981.00;4997185;28;20021;-62
2023/09/19 09:01:01;;;;;;;7.03;1.60;;;;;;;23.20;50.68;100971.19;4997230;28;20034;-62
2023/09/19 09:03:27;;;;;;;6.35;1.48;;;;;;;23.17;51.10;100974.16;4996883;28;20033;-64
2023/09/19 09:05:52;;;;;;;7.00;1.60;;;;;;;23.15;50.59;100968.19;4996608;28;20029;-62
2023/09/19 09:08:21;;;;;;;7.68;1.50;;;;;;;23.13;50.66;100971.00;4997127;28;20108;-62
2023/09/19 09:10:47;;;;;;;5.82;1.55;;;;;;;23.12;51.25;100977.28;4996992;28;20392;-62
2023/09/19 09:13:13;;;;;;;8.40;1.88;;;;;;;23.12;50.89;100963.16;4996905;28;20038;-62
2023/09/19 09:15:41;;;;;;;6.22;1.40;;;;;;;23.08;51.08;100975.94;4996946;28;20060;-62
2023/09/19 09:18:06;;;;;;;6.97;1.90;;;;;;;23.09;51.10;100982.09;4996365;28;20038;-61
2023/09/19 09:20:32;;;;;;;8.77;1.63;;;;;;;23.07;51.00;100979.56;4996787;28;20030;-62
2023/09/19 09:23:03;;;;;;;6.93;1.60;;;;;;;23.07;50.91;100976.06;4996704;28;20029;-62
2023/09/19 09:26:02;;;;;;;7.03;1.63;;;;;;;23.08;51.11;100981.25;4997393;28;20562;-62
2023/09/19 09:28:30;;;;;;;5.93;1.60;;;;;;;23.06;51.04;100985.84;5002775;28;20093;-62
2023/09/19 09:31:02;;;;;;;5.50;1.30;;;;;;;23.07;50.72;100984.88;5001264;28;20157;-66
2023/09/19 09:33:28;;;;;;;5.88;1.80;;;;;;;23.04;50.83;100985.16;5003920;28;20033;-64
2023/09/19 09:36:02;;;;;;;5.68;1.85;;;;;;;23.01;50.99;100964.22;5001458;28;20035;-64
2023/09/19 09:38:31;;;;;;;;;;;;;;;23.08;50.94;100969.78;5001312;28;20052;-65
2023/09/19 09:41:07;;;;;;;7.55;1.85;;;;;;;23.07;50.49;100952.16;5000341;28;19996;-64
2023/09/19 09:43:35;;;;;;;5.40;1.65;;;;;;;23.04;50.85;100955.94;5000281;28;20027;-64
2023/09/19 09:49:14;;;;;;;6.32;1.67;;;;;;;23.03;51.31;100954.25;5000468;28;20045;-62
2023/09/19 09:51:48;;;;;;;7.47;1.73;;;;;;;23.03;51.34;100954.25;5000066;28;20042;-64
2023/09/19 09:54:16;;;;;;;6.03;1.50;;;;;;;23.03;51.00;100945.47;4982848;28;20418;-63
2023/09/19 09:57:23;;;;;;;9.20;1.73;;;;;;;23.07;50.91;100962.78;5000398;28;20482;-63
2023/09/19 09:59:53;;;;;;;6.03;1.42;;;;;;;23.04;51.17;100952.44;4967225;28;20094;-64
2023/09/19 10:02:45;;;;;;;5.18;1.50;;;;;;;23.04;51.40;100955.94;4982386;28;20034;-62
2023/09/19 10:08:00;;;;;;;5.07;1.38;;;;;;;23.01;51.32;100965.03;5000085;28;20030;-62
2023/09/19 10:13:13;;;;;;;8.00;1.55;;;;;;;23.06;50.77;100961.09;4999722;28;20463;-64
2023/09/19 10:15:46;;;;;;;10.00;1.92;;;;;;;23.01;51.12;100953.59;4999747;28;20045;-64
2023/09/19 10:18:18;;;;;;;5.70;1.60;;;;;;;22.98;51.33;100954.72;4999633;28;20022;-63
2023/09/19 10:20:45;;;;;;;9.93;1.80;;;;;;;23.03;51.21;100959.56;4999229;28;20049;-63
2023/09/19 10:23:14;;;;;;;13.45;2.05;;;;;;;23.09;51.09;100955.50;4999605;28;20098;-64
2023/09/19 10:25:46;;;;;;;7.75;1.83;;;;;;;23.04;51.18;100941.81;4999418;28;20030;-64
2023/09/19 10:28:13;;;;;;;6.32;1.73;;;;;;;23.03;51.00;100940.97;4999725;28;20065;-63
2023/09/19 10:30:44;;;;;;;12.98;2.10;;;;;;;23.02;51.38;100944.63;4999508;28;20102;-64
2023/09/19 10:33:12;;;;;;;5.97;1.80;;;;;;;23.08;51.43;100946.72;4998732;28;20030;-62
2023/09/19 10:35:45;;;;;;;8.63;2.00;;;;;;;23.09;51.35;100950.19;4999634;28;20557;-63
2023/09/19 10:38:12;;;;;;;7.40;2.10;;;;;;;23.07;51.58;100947.66;4999313;28;20498;-65
2023/09/19 10:40:42;;;;;;;8.25;1.90;;;;;;;23.06;51.40;100956.59;4999615;28;20036;-64
2023/09/19 10:43:12;;;;;;;10.20;1.80;;;;;;;23.08;51.37;100938.72;4999361;28;20034;-64
2023/09/19 10:45:40;;;;;;;7.78;2.00;;;;;;;23.06;51.30;100955.78;4999403;28;20401;-65
2023/09/19 10:48:07;;;;;;;6.63;1.80;;;;;;;23.06;50.98;100938.00;4998977;28;20113;-64
2023/09/19 10:50:49;;;;;;;6.82;1.90;;;;;;;23.11;51.06;100940.22;4998829;28;20504;-64
2023/09/19 10:53:16;;;;;;;8.07;1.73;;;;;;;23.18;51.10;100938.63;4998705;28;20037;-63
2023/09/19 10:55:51;;;;;;;11.57;1.88;;;;;;;23.20;51.07;100935.81;4995700;28;20405;-63
2023/09/19 10:58:28;;;;;;;9.60;1.70;;;;;;;23.23;51.45;100939.00;4999025;28;20049;-64
2023/09/19 11:01:02;;;;;;;9.27;1.90;;;;;;;23.24;51.31;100946.00;4979612;28;20045;-64
2023/09/19 11:03:31;;;;;;;8.10;1.75;;;;;;;23.20;51.31;100930.50;4994980;28;20386;-63
2023/09/19 11:06:09;;;;;;;4.88;1.60;;;;;;;23.16;51.46;100929.94;4997994;28;20035;-63
2023/09/19 11:09:22;;;;;;;7.15;2.00;;;;;;;23.13;51.42;100915.16;4997111;28;20038;-65
2023/09/19 11:11:45;;;;;;;8.27;1.60;;;;;;;23.12;51.66;100910.00;4996101;28;20037;-65
2023/09/19 11:14:20;;;;;;;7.57;2.10;;;;;;;23.10;51.52;100907.50;4997107;28;20037;-64
2023/09/19 11:17:04;;;;;;;6.20;1.58;;;;;;;23.14;51.81;100902.69;4998048;28;20073;-64
2023/09/19 11:22:48;;;;;;;9.73;1.73;;;;;;;23.19;51.28;100908.38;4997524;28;21617;-66
2023/09/19 11:25:32;;;;;;;8.73;1.48;;;;;;;23.18;51.29;100899.56;4997687;28;20026;-65
2023/09/19 11:28:05;;;;;;;9.52;1.63;;;;;;;23.20;51.43;100903.91;4994441;28;20030;-64
2023/09/19 11:30:35;;;;;;;6.40;1.70;;;;;;;23.21;51.14;100889.59;4997792;28;20048;-65
2023/09/19 11:33:23;;;;;;;5.28;1.70;;;;;;;23.21;51.55;100889.59;4995983;28;20022;-63
2023/09/19 11:36:09;;;;;;;5.70;1.65;;;;;;;23.20;51.27;100870.19;4997254;28;20029;-62
2023/09/19 11:38:44;;;;;;;8.65;1.70;;;;;;;23.21;51.46;100871.00;4997696;28;20034;-66
2023/09/19 11:41:31;;;;;;;6.22;1.35;;;;;;;23.24;51.34;100883.97;4997493;28;20040;-65
2023/09/19 11:44:05;;;;;;;8.15;1.70;;;;;;;23.25;51.71;100867.88;4997312;28;20391;-66